logo
Search for airport 
image banner adimage banner adimage banner ad
image banner ad

FA0001 - Graskop Airfield

Located in , South Africa

ICAO - , IATA -

Data provided by Airmate  

General information

Coordinates: S29°49'44" E30°30'21"
Elevation is 2303 feet MSL.
 
View others Airports in Limpopo

Operational data

Special qualification required
Current time UTC:
Current local time:
Weather at : FAPM - Pietermaritzburg ( 23 km )
TAF: TAF FAPM 150900Z 1510/1521 14010KT CAVOK TX25/1512Z TN12/1521Z BECMG 1516/1518 VRB03KT
View NOTAMs / SUP AIP / TFR affecting this airport [VIEW]
Communications frequencies: [VIEW]

Runways:

Airport contact information

Address: South Africa

Satellite view of FA0001